createdAt,value
2018-08-31T00:02:28.045Z,3.23
2018-08-31T00:06:03.046Z,3.13
2018-08-31T00:08:40.082Z,2.80
2018-08-31T00:11:28.878Z,2.67
2018-08-31T00:13:57.381Z,2.80
2018-08-31T00:16:25.479Z,3.07
2018-08-31T00:18:52.786Z,2.83
2018-08-31T00:21:20.227Z,3.03
2018-08-31T00:23:53.008Z,2.60
2018-08-31T00:29:40.371Z,2.80
2018-08-31T00:34:18.834Z,2.63
2018-08-31T00:36:51.434Z,2.80
2018-08-31T00:41:30.865Z,3.00
2018-08-31T00:44:04.391Z,3.30
2018-08-31T00:46:31.590Z,3.13
2018-08-31T00:48:58.959Z,2.83
2018-08-31T00:51:26.169Z,3.53
2018-08-31T00:53:53.382Z,2.73
2018-08-31T00:56:20.560Z,3.20
2018-08-31T00:58:47.758Z,3.30
2018-08-31T01:01:15.230Z,3.83
2018-08-31T01:03:42.501Z,3.20
2018-08-31T01:06:09.750Z,2.87
2018-08-31T01:08:37.352Z,3.00
2018-08-31T01:11:04.638Z,2.50
2018-08-31T01:13:31.838Z,3.27
2018-08-31T01:15:58.983Z,2.80
2018-08-31T01:18:26.265Z,3.57
2018-08-31T01:20:53.464Z,2.93
2018-08-31T01:23:20.662Z,3.63
2018-08-31T01:25:48.073Z,2.67
2018-08-31T01:28:15.288Z,3.77
2018-08-31T01:30:42.688Z,3.57
2018-08-31T01:33:09.856Z,3.30
2018-08-31T01:35:37.018Z,3.10
2018-08-31T01:38:04.263Z,2.70
2018-08-31T01:40:31.467Z,3.13
2018-08-31T01:42:58.730Z,3.10
2018-08-31T01:45:25.911Z,3.13
2018-08-31T01:47:53.113Z,3.50
2018-08-31T01:50:20.326Z,3.43
2018-08-31T01:52:47.569Z,3.80
2018-08-31T01:55:14.690Z,3.10
2018-08-31T01:57:41.914Z,3.50
2018-08-31T02:00:09.146Z,2.90
2018-08-31T02:02:36.327Z,3.13
2018-08-31T02:05:03.608Z,3.47
2018-08-31T02:07:31.155Z,3.10
2018-08-31T02:09:58.543Z,3.00
2018-08-31T02:12:25.794Z,3.40
2018-08-31T02:14:53.366Z,3.47
2018-08-31T02:17:20.547Z,3.50
2018-08-31T02:19:48.421Z,3.43
2018-08-31T02:22:15.594Z,3.00
2018-08-31T02:24:42.788Z,3.33
2018-08-31T02:27:09.987Z,3.23
2018-08-31T02:29:37.133Z,3.30
2018-08-31T02:32:04.554Z,3.17
2018-08-31T02:34:31.717Z,3.20
2018-08-31T02:38:23.426Z,3.20
2018-08-31T02:40:50.599Z,3.90
2018-08-31T02:43:17.953Z,3.30
2018-08-31T02:45:45.131Z,3.03
2018-08-31T02:48:12.336Z,3.50
2018-08-31T02:50:39.527Z,3.30
2018-08-31T02:53:06.725Z,3.30
2018-08-31T02:55:33.982Z,3.70
2018-08-31T02:58:01.164Z,3.10
2018-08-31T03:00:28.341Z,3.83
2018-08-31T03:02:56.033Z,3.30
2018-08-31T03:05:23.213Z,3.43
2018-08-31T03:07:50.450Z,3.17
2018-08-31T03:10:17.627Z,3.40
2018-08-31T03:12:44.974Z,3.20
2018-08-31T03:15:12.252Z,3.80
2018-08-31T03:17:39.522Z,3.20
2018-08-31T03:20:06.684Z,3.27
2018-08-31T03:22:33.915Z,3.50
2018-08-31T03:25:01.082Z,3.17
2018-08-31T03:27:28.376Z,3.00
2018-08-31T03:29:55.533Z,3.43
2018-08-31T03:32:22.731Z,2.90
2018-08-31T03:34:49.976Z,3.53
2018-08-31T03:37:17.173Z,3.40
2018-08-31T03:39:44.374Z,3.67
2018-08-31T03:42:11.536Z,3.40
2018-08-31T03:44:38.750Z,3.37
2018-08-31T03:47:05.941Z,2.97
2018-08-31T03:49:33.172Z,3.60
2018-08-31T03:52:00.390Z,3.70
2018-08-31T03:54:27.612Z,3.40
2018-08-31T03:56:54.778Z,3.37
2018-08-31T03:59:21.973Z,3.83
2018-08-31T04:01:49.196Z,3.50
2018-08-31T04:04:16.649Z,3.30
2018-08-31T04:06:43.846Z,3.30
2018-08-31T04:09:11.018Z,3.60
2018-08-31T04:11:38.213Z,3.23
2018-08-31T04:14:05.593Z,3.57
2018-08-31T04:16:33.035Z,3.20
2018-08-31T04:19:04.533Z,3.50
2018-08-31T04:21:32.274Z,3.37
2018-08-31T04:23:59.623Z,3.80
2018-08-31T04:26:27.141Z,3.30
2018-08-31T04:28:54.328Z,3.50
2018-08-31T04:31:21.517Z,3.43
2018-08-31T04:33:48.741Z,3.70
2018-08-31T04:36:15.933Z,3.83
2018-08-31T04:38:43.138Z,3.53
2018-08-31T04:41:10.491Z,3.40
2018-08-31T04:43:37.688Z,3.33
2018-08-31T04:46:05.306Z,3.20
2018-08-31T04:48:32.561Z,3.70
2018-08-31T04:50:59.905Z,4.10
2018-08-31T04:53:27.070Z,3.50
2018-08-31T04:55:54.278Z,3.50
2018-08-31T04:58:21.577Z,3.67
2018-08-31T05:00:48.762Z,3.53
2018-08-31T05:03:16.002Z,3.33
2018-08-31T05:05:43.318Z,3.70
2018-08-31T05:08:10.565Z,3.37
2018-08-31T05:10:37.761Z,2.90
2018-08-31T05:13:05.389Z,4.07
2018-08-31T05:15:32.642Z,3.50
2018-08-31T05:17:59.907Z,3.90
2018-08-31T05:20:27.249Z,3.80
2018-08-31T05:22:54.512Z,3.83
2018-08-31T05:25:21.636Z,4.10
2018-08-31T05:27:48.845Z,4.00
2018-08-31T05:30:16.218Z,4.10
2018-08-31T05:32:43.490Z,3.70
2018-08-31T05:35:10.774Z,3.90
2018-08-31T05:37:38.028Z,3.93
2018-08-31T05:40:05.651Z,3.77
2018-08-31T05:42:32.952Z,3.73
2018-08-31T05:45:00.195Z,3.80
2018-08-31T05:47:27.389Z,4.27
2018-08-31T05:49:54.617Z,3.90
2018-08-31T05:52:21.783Z,4.17
2018-08-31T05:54:48.997Z,4.07
2018-08-31T05:57:16.185Z,4.47
2018-08-31T05:59:43.389Z,3.67
2018-08-31T06:02:10.667Z,4.83
2018-08-31T06:04:37.833Z,4.37
2018-08-31T06:07:05.037Z,4.57
2018-08-31T06:09:32.328Z,4.77
2018-08-31T06:11:59.600Z,3.97
2018-08-31T06:14:26.789Z,4.43
2018-08-31T06:16:54.428Z,4.10
2018-08-31T06:19:21.518Z,4.90
2018-08-31T06:21:48.822Z,5.00
2018-08-31T06:24:16.029Z,4.40
2018-08-31T06:26:43.235Z,4.90
2018-08-31T06:29:10.590Z,5.10
2018-08-31T06:31:37.773Z,4.33
2018-08-31T06:34:05.334Z,4.57
2018-08-31T06:36:32.571Z,5.20
2018-08-31T06:38:59.722Z,5.07
2018-08-31T06:41:27.233Z,4.77
2018-08-31T06:43:54.543Z,4.50
2018-08-31T06:46:22.148Z,4.77
2018-08-31T06:48:49.607Z,5.30
2018-08-31T06:51:17.059Z,4.43
2018-08-31T06:53:44.631Z,4.83
2018-08-31T06:56:11.982Z,4.60
2018-08-31T06:58:39.211Z,5.10
2018-08-31T07:01:06.575Z,5.13
2018-08-31T07:03:33.790Z,5.13
2018-08-31T07:06:01.138Z,5.00
2018-08-31T07:08:28.337Z,4.80
2018-08-31T07:10:55.576Z,4.53
2018-08-31T07:13:22.741Z,5.00
2018-08-31T07:15:49.951Z,5.23
2018-08-31T07:18:17.274Z,4.57
2018-08-31T07:20:44.695Z,5.20
2018-08-31T07:23:12.074Z,4.00
2018-08-31T07:25:39.317Z,4.53
2018-08-31T07:28:06.561Z,4.40
2018-08-31T07:30:33.838Z,4.93
2018-08-31T07:33:01.178Z,4.07
2018-08-31T07:35:28.725Z,4.93
2018-08-31T07:37:55.902Z,4.53
2018-08-31T07:40:23.102Z,4.40
2018-08-31T07:42:50.285Z,4.90
2018-08-31T07:45:17.661Z,4.90
2018-08-31T07:47:44.880Z,4.93
2018-08-31T07:50:12.066Z,5.13
2018-08-31T07:52:39.270Z,5.00
2018-08-31T07:55:06.458Z,4.70
2018-08-31T07:57:33.686Z,4.93
2018-08-31T08:00:00.887Z,4.53
2018-08-31T08:02:28.843Z,5.03
2018-08-31T08:04:56.053Z,5.07
2018-08-31T08:07:23.401Z,4.87
2018-08-31T08:09:50.558Z,3.97
2018-08-31T08:12:17.734Z,4.33
2018-08-31T08:14:45.045Z,4.67
2018-08-31T08:17:12.497Z,4.60
2018-08-31T08:19:39.966Z,4.77
2018-08-31T08:22:07.221Z,5.03
2018-08-31T08:24:34.530Z,5.50
2018-08-31T08:27:01.689Z,5.13
2018-08-31T08:29:29.126Z,5.00
2018-08-31T08:32:59.339Z,5.50
2018-08-31T08:35:26.630Z,4.70
2018-08-31T08:37:53.859Z,4.40
2018-08-31T08:40:21.132Z,5.10
2018-08-31T08:42:48.464Z,5.70
2018-08-31T08:45:15.965Z,5.00
2018-08-31T08:47:43.190Z,5.63
2018-08-31T08:50:10.539Z,5.10
2018-08-31T08:52:37.751Z,5.37
2018-08-31T08:55:05.026Z,5.20
2018-08-31T08:57:32.298Z,5.10
2018-08-31T08:59:59.636Z,5.10
2018-08-31T09:02:26.828Z,6.50
2018-08-31T09:04:54.168Z,6.00
2018-08-31T09:07:21.426Z,6.13
2018-08-31T09:09:48.990Z,5.90
2018-08-31T09:12:16.485Z,5.20
2018-08-31T09:14:44.003Z,5.27
2018-08-31T09:17:11.462Z,5.50
2018-08-31T09:19:39.215Z,5.37
2018-08-31T09:22:06.423Z,4.67
2018-08-31T09:24:33.742Z,5.40
2018-08-31T09:27:01.049Z,4.57
2018-08-31T09:29:28.349Z,4.80
2018-08-31T09:31:55.575Z,3.67
2018-08-31T09:34:22.789Z,4.27
2018-08-31T09:36:50.210Z,4.10
2018-08-31T09:39:18.152Z,3.73
2018-08-31T09:41:45.742Z,3.87
2018-08-31T09:44:13.085Z,3.80
2018-08-31T09:46:40.279Z,3.23
2018-08-31T09:49:07.486Z,3.70
2018-08-31T09:51:34.822Z,3.30
2018-08-31T09:54:02.273Z,3.97
2018-08-31T09:56:30.057Z,3.10
2018-08-31T09:58:57.313Z,3.50
2018-08-31T10:01:29.967Z,3.30
2018-08-31T10:04:00.844Z,3.33
2018-08-31T10:06:28.629Z,3.90
2018-08-31T10:08:55.838Z,3.30
2018-08-31T10:11:23.048Z,3.60
2018-08-31T10:13:50.611Z,3.40
2018-08-31T10:16:17.911Z,3.23
2018-08-31T10:18:47.139Z,2.70
2018-08-31T10:21:14.470Z,3.50
2018-08-31T10:23:42.030Z,3.50
2018-08-31T10:26:09.283Z,2.80
2018-08-31T10:28:36.651Z,3.67
2018-08-31T10:31:03.927Z,2.97
2018-08-31T10:33:31.759Z,3.43
2018-08-31T10:35:59.027Z,2.80
2018-08-31T10:38:26.466Z,3.37
2018-08-31T10:40:53.718Z,3.00
2018-08-31T10:43:20.979Z,2.83
2018-08-31T10:45:48.188Z,2.70
2018-08-31T10:48:15.439Z,2.80
2018-08-31T10:50:42.654Z,2.63
2018-08-31T10:53:09.996Z,2.57
2018-08-31T10:55:37.460Z,2.97
2018-08-31T10:58:04.674Z,2.10
2018-08-31T11:00:32.254Z,2.80
2018-08-31T11:02:59.563Z,2.70
2018-08-31T11:05:26.997Z,3.00
2018-08-31T11:07:54.541Z,2.40
2018-08-31T11:10:21.764Z,2.53
2018-08-31T11:12:49.208Z,2.70
2018-08-31T11:15:16.397Z,2.70
2018-08-31T11:17:43.677Z,2.10
2018-08-31T11:20:10.922Z,2.70
2018-08-31T11:22:38.122Z,2.60
2018-08-31T11:25:05.348Z,2.90
2018-08-31T11:27:32.910Z,2.47
2018-08-31T11:30:00.415Z,1.97
2018-08-31T11:32:27.650Z,2.90
2018-08-31T11:34:54.911Z,2.90
2018-08-31T11:37:22.180Z,3.20
2018-08-31T11:39:49.391Z,2.70
2018-08-31T11:42:16.695Z,2.37
2018-08-31T11:44:44.071Z,2.90
2018-08-31T11:47:11.450Z,2.77
2018-08-31T11:49:38.707Z,2.93
2018-08-31T11:52:06.018Z,2.87
2018-08-31T11:54:33.296Z,2.37
2018-08-31T11:57:00.537Z,3.30
2018-08-31T11:59:27.961Z,2.07
2018-08-31T12:01:55.392Z,2.67
2018-08-31T12:04:22.636Z,2.40
2018-08-31T12:06:50.004Z,2.60
2018-08-31T12:09:17.258Z,2.60
2018-08-31T12:11:44.664Z,2.70
2018-08-31T12:14:11.876Z,2.37
2018-08-31T12:16:39.569Z,2.67
2018-08-31T12:19:06.949Z,2.90
2018-08-31T12:21:34.381Z,2.70
2018-08-31T12:24:01.576Z,1.90
2018-08-31T12:26:29.090Z,2.37
2018-08-31T12:28:56.482Z,2.27
2018-08-31T12:31:23.732Z,2.70
2018-08-31T12:33:50.951Z,2.43
2018-08-31T12:36:18.518Z,2.70
2018-08-31T12:38:46.090Z,2.30
2018-08-31T12:41:13.351Z,3.23
2018-08-31T12:43:40.755Z,2.60
2018-08-31T12:46:07.987Z,2.80
2018-08-31T12:48:35.200Z,2.60
2018-08-31T12:51:02.423Z,2.57
2018-08-31T12:53:30.226Z,2.67
2018-08-31T12:55:57.498Z,2.63
2018-08-31T12:58:24.756Z,2.73
2018-08-31T13:00:51.993Z,2.37
2018-08-31T13:03:19.455Z,2.47
2018-08-31T13:05:46.993Z,3.07
2018-08-31T13:08:14.215Z,2.30
2018-08-31T13:10:41.527Z,2.50
2018-08-31T13:13:08.775Z,2.53
2018-08-31T13:15:36.418Z,2.60
2018-08-31T13:18:03.728Z,2.47
2018-08-31T13:20:31.147Z,2.67
2018-08-31T13:24:22.795Z,2.10
2018-08-31T13:26:50.122Z,2.80
2018-08-31T13:29:17.393Z,2.57
2018-08-31T13:31:44.756Z,2.60
2018-08-31T13:34:12.006Z,3.00
2018-08-31T13:36:39.223Z,2.53
2018-08-31T13:39:06.803Z,2.80
2018-08-31T13:41:33.994Z,1.93
2018-08-31T13:44:01.303Z,2.67
2018-08-31T13:46:28.404Z,2.20
2018-08-31T13:48:55.650Z,2.90
2018-08-31T13:51:22.862Z,3.20
2018-08-31T13:53:50.331Z,3.10
2018-08-31T13:56:17.551Z,2.50
2018-08-31T13:58:44.894Z,2.20
2018-08-31T14:01:12.065Z,2.53
2018-08-31T14:03:39.598Z,2.80
2018-08-31T14:06:07.000Z,3.00
2018-08-31T14:08:34.529Z,2.77
2018-08-31T14:11:01.795Z,2.87
2018-08-31T14:13:29.071Z,2.80
2018-08-31T14:15:56.303Z,2.57
2018-08-31T14:18:23.873Z,2.77
2018-08-31T14:20:51.450Z,2.30
2018-08-31T14:23:18.982Z,2.77
2018-08-31T14:25:46.366Z,2.80
2018-08-31T14:28:13.633Z,2.10
2018-08-31T14:30:41.229Z,2.23
2018-08-31T14:33:08.703Z,2.93
2018-08-31T14:35:35.968Z,2.80
2018-08-31T14:38:03.216Z,2.80
2018-08-31T14:40:30.534Z,3.03
2018-08-31T14:42:57.723Z,2.70
2018-08-31T14:45:24.941Z,2.97
2018-08-31T14:47:52.403Z,3.10
2018-08-31T14:50:19.734Z,2.93
2018-08-31T14:52:46.882Z,3.07
2018-08-31T14:55:14.203Z,2.33
2018-08-31T14:57:41.588Z,3.30
2018-08-31T15:00:08.905Z,2.90
2018-08-31T15:02:36.514Z,2.60
2018-08-31T15:05:03.754Z,2.30
2018-08-31T15:07:31.114Z,2.80
2018-08-31T15:09:58.435Z,3.00
2018-08-31T15:12:26.399Z,2.43
2018-08-31T15:14:53.860Z,2.70
2018-08-31T15:17:21.092Z,2.47
2018-08-31T15:19:48.316Z,2.70
2018-08-31T15:22:15.587Z,2.50
2018-08-31T15:24:42.797Z,2.70
2018-08-31T15:27:10.262Z,2.63
2018-08-31T15:29:37.474Z,2.80
2018-08-31T15:32:04.971Z,2.87
2018-08-31T15:34:32.194Z,2.60
2018-08-31T15:36:59.639Z,2.70
2018-08-31T15:39:26.816Z,3.20
2018-08-31T15:41:54.362Z,2.80
2018-08-31T15:44:21.667Z,3.37
2018-08-31T15:46:48.973Z,2.57
2018-08-31T15:49:16.202Z,2.80
2018-08-31T15:51:43.419Z,2.80
2018-08-31T15:54:10.657Z,3.30
2018-08-31T15:56:37.986Z,2.60
2018-08-31T15:59:05.469Z,2.80
2018-08-31T16:01:33.099Z,3.27
2018-08-31T16:04:00.269Z,2.90
2018-08-31T16:06:27.615Z,3.00
2018-08-31T16:08:54.858Z,3.00
2018-08-31T16:11:22.138Z,2.67
2018-08-31T16:13:49.455Z,3.40
2018-08-31T16:16:16.752Z,2.40
2018-08-31T16:18:44.196Z,2.80
2018-08-31T16:21:11.428Z,2.73
2018-08-31T16:23:38.693Z,2.90
2018-08-31T16:26:06.257Z,2.60
2018-08-31T16:28:33.500Z,3.23
2018-08-31T16:31:00.903Z,2.80
2018-08-31T16:33:28.355Z,2.90
2018-08-31T16:35:55.542Z,3.30
2018-08-31T16:38:22.817Z,2.80
2018-08-31T16:40:50.094Z,2.77
2018-08-31T16:43:17.391Z,3.07
2018-08-31T16:45:44.869Z,2.63
2018-08-31T16:48:12.392Z,3.20
2018-08-31T16:50:39.894Z,2.53
2018-08-31T16:53:07.737Z,3.70
2018-08-31T16:55:34.980Z,2.90
2018-08-31T16:58:02.574Z,3.77
2018-08-31T17:00:30.058Z,2.70
2018-08-31T17:02:57.568Z,2.50
2018-08-31T17:05:24.999Z,2.70
2018-08-31T17:07:52.785Z,2.30
2018-08-31T17:10:20.084Z,2.70
2018-08-31T17:12:47.316Z,3.13
2018-08-31T17:15:14.576Z,3.00
2018-08-31T17:17:42.021Z,3.00
2018-08-31T17:20:09.330Z,3.10
2018-08-31T17:22:36.836Z,2.70
2018-08-31T17:25:04.736Z,2.97
2018-08-31T17:27:37.307Z,2.80
2018-08-31T17:30:11.177Z,2.60
2018-08-31T17:32:43.762Z,2.80
2018-08-31T17:35:16.350Z,2.83
2018-08-31T17:37:43.657Z,2.63
2018-08-31T17:40:10.903Z,3.00
2018-08-31T17:42:39.526Z,1.90
2018-08-31T17:45:07.552Z,2.20
2018-08-31T17:47:34.939Z,2.00
2018-08-31T17:50:02.170Z,2.43
2018-08-31T17:52:29.463Z,2.30
2018-08-31T17:54:56.682Z,2.40
2018-08-31T17:57:23.923Z,2.17
2018-08-31T17:59:51.389Z,2.10
2018-08-31T18:02:18.692Z,2.30
2018-08-31T18:04:46.186Z,1.80
2018-08-31T18:07:13.955Z,2.07
2018-08-31T18:09:41.363Z,2.50
2018-08-31T18:12:08.686Z,2.40
2018-08-31T18:14:35.926Z,2.07
2018-08-31T18:17:03.569Z,2.10
2018-08-31T18:19:30.749Z,2.00
2018-08-31T18:21:58.107Z,2.00
2018-08-31T18:29:57.261Z,2.10
2018-08-31T18:32:24.700Z,2.30
2018-08-31T18:34:51.958Z,2.50
2018-08-31T18:37:19.509Z,2.33
2018-08-31T18:39:47.137Z,2.20
2018-08-31T18:42:14.341Z,2.50
2018-08-31T18:44:41.555Z,2.17
2018-08-31T18:47:08.823Z,2.93
2018-08-31T18:49:36.163Z,2.50
2018-08-31T18:52:03.452Z,2.10
2018-08-31T18:54:30.715Z,1.80
2018-08-31T18:56:58.249Z,1.90
2018-08-31T18:59:25.493Z,1.90
2018-08-31T19:01:52.693Z,2.00
2018-08-31T19:04:19.995Z,2.27
2018-08-31T19:06:47.307Z,2.03
2018-08-31T19:09:14.451Z,2.00
2018-08-31T19:11:41.782Z,1.90
2018-08-31T19:14:09.007Z,2.13
2018-08-31T19:16:36.390Z,2.00
2018-08-31T19:19:03.810Z,2.20
2018-08-31T19:21:31.078Z,2.00
2018-08-31T19:23:58.370Z,1.80
2018-08-31T19:26:25.605Z,2.10
2018-08-31T19:28:53.015Z,1.80
2018-08-31T19:31:20.692Z,1.93
2018-08-31T19:33:47.943Z,1.70
2018-08-31T19:36:15.395Z,1.80
2018-08-31T19:38:42.677Z,1.97
2018-08-31T19:41:10.034Z,2.20
2018-08-31T19:43:37.488Z,2.20
2018-08-31T19:46:05.028Z,2.60
2018-08-31T19:48:32.604Z,1.80
2018-08-31T19:51:00.214Z,1.23
2018-08-31T19:53:27.861Z,1.90
2018-08-31T19:55:55.509Z,1.73
2018-08-31T19:58:22.862Z,2.00
2018-08-31T20:00:50.350Z,1.80
2018-08-31T20:03:17.762Z,1.90
2018-08-31T20:05:45.325Z,2.30
2018-08-31T20:08:12.594Z,1.83
2018-08-31T20:10:40.751Z,1.93
2018-08-31T20:13:08.001Z,1.60
2018-08-31T20:15:35.375Z,1.77
2018-08-31T20:18:02.611Z,1.90
2018-08-31T20:20:29.850Z,2.40
2018-08-31T20:22:57.221Z,1.70
2018-08-31T20:25:24.474Z,1.70
2018-08-31T20:27:51.927Z,2.10
2018-08-31T20:30:20.036Z,1.83
2018-08-31T20:32:47.306Z,1.90
2018-08-31T20:35:14.833Z,1.80
2018-08-31T20:37:42.265Z,2.17
2018-08-31T20:40:09.775Z,2.00
2018-08-31T20:42:36.994Z,1.87
2018-08-31T20:45:04.376Z,2.27
2018-08-31T20:47:31.660Z,1.83
2018-08-31T20:49:58.904Z,2.10
2018-08-31T20:52:26.157Z,2.10
2018-08-31T20:54:53.462Z,2.20
2018-08-31T20:57:20.839Z,2.27
2018-08-31T20:59:48.079Z,1.90
2018-08-31T21:02:15.352Z,1.97
2018-08-31T21:04:42.718Z,2.13
2018-08-31T21:07:10.051Z,2.00
2018-08-31T21:09:37.632Z,1.93
2018-08-31T21:12:04.859Z,1.70
2018-08-31T21:14:32.087Z,1.90
2018-08-31T21:17:00.106Z,1.47
2018-08-31T21:19:27.835Z,2.13
2018-08-31T21:21:55.108Z,2.10
2018-08-31T21:24:22.470Z,1.90
2018-08-31T21:26:49.691Z,1.70
2018-08-31T21:29:17.075Z,2.10
2018-08-31T21:31:44.522Z,2.07
2018-08-31T21:34:11.977Z,1.80
2018-08-31T21:36:39.202Z,1.60
2018-08-31T21:39:07.172Z,1.60
2018-08-31T21:41:34.447Z,1.90
2018-08-31T21:44:01.658Z,1.50
2018-08-31T21:46:28.899Z,1.83
2018-08-31T21:48:56.084Z,1.60
2018-08-31T21:51:23.310Z,2.77
2018-08-31T21:53:50.544Z,2.20
2018-08-31T21:56:17.731Z,1.80
2018-08-31T21:58:45.048Z,1.47
2018-08-31T22:02:21.039Z,2.10
2018-08-31T22:04:48.282Z,2.00
2018-08-31T22:07:15.496Z,1.87
2018-08-31T22:09:42.760Z,1.70
2018-08-31T22:12:09.941Z,1.70
2018-08-31T22:14:37.378Z,1.47
2018-08-31T22:17:04.789Z,1.90
2018-08-31T22:19:32.258Z,1.97
2018-08-31T22:21:59.467Z,1.93
2018-08-31T22:24:26.704Z,2.13
2018-08-31T22:26:53.921Z,1.60
2018-08-31T22:29:21.118Z,2.30
2018-08-31T22:31:48.512Z,1.60
2018-08-31T22:34:15.934Z,1.90
2018-08-31T22:36:43.133Z,1.83
2018-08-31T22:39:10.581Z,1.93
2018-08-31T22:41:37.814Z,1.87
2018-08-31T22:44:05.071Z,1.63
2018-08-31T22:46:32.631Z,1.50
2018-08-31T22:48:59.946Z,1.70
2018-08-31T22:51:27.383Z,2.10
2018-08-31T22:53:54.606Z,1.90
2018-08-31T22:56:21.786Z,1.97
2018-08-31T22:58:49.313Z,1.97
2018-08-31T23:01:17.100Z,1.60
2018-08-31T23:03:44.674Z,1.50
2018-08-31T23:06:12.028Z,2.13
2018-08-31T23:08:39.437Z,1.90
2018-08-31T23:11:09.612Z,2.00
2018-08-31T23:13:37.435Z,1.87
2018-08-31T23:16:04.678Z,1.50
2018-08-31T23:18:32.150Z,1.30
2018-08-31T23:20:59.643Z,1.80
2018-08-31T23:23:27.832Z,1.60
2018-08-31T23:25:55.045Z,1.63
2018-08-31T23:28:22.954Z,2.00
2018-08-31T23:30:50.409Z,1.90
2018-08-31T23:33:17.623Z,1.50
2018-08-31T23:35:45.218Z,1.50
2018-08-31T23:38:12.651Z,1.90
2018-08-31T23:40:40.230Z,2.00
2018-08-31T23:43:07.414Z,2.07
2018-08-31T23:45:34.712Z,2.03
2018-08-31T23:48:02.009Z,1.70
2018-08-31T23:50:29.438Z,1.40
2018-08-31T23:52:56.871Z,1.27
2018-08-31T23:55:24.057Z,1.50
2018-08-31T23:57:51.279Z,1.80
